createdAt,value
2022-12-23T00:00:09.701Z,989.25
2022-12-23T00:01:12.358Z,989.24
2022-12-23T00:02:15.652Z,989.31
2022-12-23T00:03:18.946Z,989.27
2022-12-23T00:04:22.127Z,989.34
2022-12-23T00:05:27.208Z,989.31
2022-12-23T00:06:31.164Z,989.29
2022-12-23T00:07:34.365Z,989.3
2022-12-23T00:08:38.688Z,989.36
2022-12-23T00:09:41.981Z,989.37
2022-12-23T00:10:44.922Z,989.35
2022-12-23T00:11:49.668Z,989.32
2022-12-23T00:12:52.255Z,989.34
2022-12-23T00:13:54.960Z,989.35
2022-12-23T00:14:57.664Z,989.34
2022-12-23T00:16:01.272Z,989.38
2022-12-23T00:17:22.394Z,989.32
2022-12-23T00:18:25.400Z,989.43
2022-12-23T00:19:28.488Z,989.41
2022-12-23T00:20:31.073Z,989.35
2022-12-23T00:21:35.417Z,989.39
2022-12-23T00:22:38.301Z,989.41
2022-12-23T00:23:41.621Z,989.47
2022-12-23T00:24:44.319Z,989.48
2022-12-23T00:25:47.800Z,989.46
2022-12-23T00:26:50.381Z,989.49
2022-12-23T00:27:53.061Z,989.5
2022-12-23T00:28:55.974Z,989.45
2022-12-23T00:29:58.746Z,989.64
2022-12-23T00:31:01.909Z,989.45
2022-12-23T00:32:04.941Z,989.42
2022-12-23T00:33:07.692Z,989.5
2022-12-23T00:34:10.641Z,989.51
2022-12-23T00:35:14.307Z,989.55
2022-12-23T00:36:17.543Z,989.5
2022-12-23T00:37:20.678Z,989.49
2022-12-23T00:38:23.323Z,989.41
2022-12-23T00:39:26.092Z,989.37
2022-12-23T00:40:28.799Z,989.39
2022-12-23T00:41:31.658Z,989.39
2022-12-23T00:42:34.360Z,989.45
2022-12-23T00:43:37.562Z,989.46
2022-12-23T00:44:40.706Z,989.44
2022-12-23T00:45:43.842Z,989.43
2022-12-23T00:46:47.425Z,989.5
2022-12-23T00:47:51.139Z,989.56
2022-12-23T00:48:54.135Z,989.57
2022-12-23T00:49:57.294Z,989.54
2022-12-23T00:51:00.394Z,989.53
2022-12-23T00:52:03.070Z,989.53
2022-12-23T00:53:05.775Z,989.53
2022-12-23T00:54:09.499Z,989.59
2022-12-23T00:55:12.205Z,989.55
2022-12-23T00:56:14.953Z,989.59
2022-12-23T00:57:18.200Z,989.59
2022-12-23T00:58:20.862Z,989.54
2022-12-23T00:59:24.081Z,989.59
2022-12-23T01:00:26.959Z,989.58
2022-12-23T01:01:31.073Z,989.67
2022-12-23T01:02:34.978Z,989.63
2022-12-23T01:03:38.492Z,989.72
2022-12-23T01:04:41.178Z,989.67
2022-12-23T01:05:44.674Z,989.62
2022-12-23T01:06:47.838Z,989.67
2022-12-23T01:07:50.512Z,989.71
2022-12-23T01:08:53.255Z,989.75
2022-12-23T01:09:55.957Z,989.76
2022-12-23T01:10:58.941Z,989.85
2022-12-23T01:12:01.733Z,989.84
2022-12-23T01:13:05.774Z,989.77
2022-12-23T01:14:08.418Z,989.7
2022-12-23T01:15:11.639Z,989.78
2022-12-23T01:16:18.490Z,989.75
2022-12-23T01:17:21.394Z,989.8
2022-12-23T01:18:24.334Z,989.84
2022-12-23T01:19:27.485Z,989.86
2022-12-23T01:20:30.225Z,989.71
2022-12-23T01:21:32.973Z,989.82
2022-12-23T01:22:45.699Z,989.91
2022-12-23T01:23:47.959Z,989.84
2022-12-23T01:24:50.706Z,989.9
2022-12-23T01:25:53.384Z,989.88
2022-12-23T01:26:56.144Z,989.9
2022-12-23T01:27:58.943Z,990.07
2022-12-23T01:29:01.680Z,989.96
2022-12-23T01:30:06.413Z,990
2022-12-23T01:31:09.433Z,990.04
2022-12-23T01:32:14.420Z,990.13
2022-12-23T01:33:17.464Z,990.08
2022-12-23T01:34:20.142Z,990.11
2022-12-23T01:35:22.824Z,990.14
2022-12-23T01:36:26.025Z,990.09
2022-12-23T01:37:28.729Z,990.13
2022-12-23T01:38:32.172Z,990.11
2022-12-23T01:39:34.847Z,990.16
2022-12-23T01:40:42.485Z,990.15
2022-12-23T01:41:44.966Z,990.1
2022-12-23T01:42:48.257Z,990.17
2022-12-23T01:43:52.325Z,990.19
2022-12-23T01:44:55.161Z,990.2
2022-12-23T01:45:58.401Z,990.3
2022-12-23T01:47:01.081Z,990.31
2022-12-23T01:48:03.801Z,990.28
2022-12-23T01:49:06.512Z,990.28
2022-12-23T01:50:09.239Z,990.23
2022-12-23T01:51:11.952Z,990.38
2022-12-23T01:52:14.658Z,990.29
2022-12-23T01:53:17.374Z,990.32
2022-12-23T01:54:20.923Z,990.32
2022-12-23T01:55:23.580Z,990.35
2022-12-23T01:56:26.758Z,990.4
2022-12-23T01:57:29.484Z,990.34
2022-12-23T01:58:32.253Z,990.43
2022-12-23T01:59:35.210Z,990.47
2022-12-23T02:00:38.735Z,990.53
2022-12-23T02:01:42.123Z,990.59
2022-12-23T02:02:45.302Z,990.63
2022-12-23T02:03:48.094Z,990.63
2022-12-23T02:04:51.445Z,990.67
2022-12-23T02:05:54.780Z,990.74
2022-12-23T02:06:57.916Z,990.7
2022-12-23T02:08:00.605Z,990.68
2022-12-23T02:09:04.953Z,990.72
2022-12-23T02:10:07.563Z,990.74
2022-12-23T02:11:10.292Z,990.66
2022-12-23T02:12:13.117Z,990.67
2022-12-23T02:13:16.507Z,990.65
2022-12-23T02:14:19.409Z,990.69
2022-12-23T02:15:22.141Z,990.64
2022-12-23T02:16:25.078Z,990.63
2022-12-23T02:17:27.797Z,990.63
2022-12-23T02:18:30.495Z,990.61
2022-12-23T02:19:33.200Z,990.68
2022-12-23T02:20:36.158Z,990.77
2022-12-23T02:21:39.659Z,990.7
2022-12-23T02:22:43.814Z,990.73
2022-12-23T02:23:46.437Z,990.83
2022-12-23T02:24:49.123Z,990.89
2022-12-23T02:25:51.811Z,990.81
2022-12-23T02:26:54.539Z,990.78
2022-12-23T02:27:57.313Z,990.74
2022-12-23T02:29:00.023Z,990.73
2022-12-23T02:30:02.749Z,990.73
2022-12-23T02:31:05.813Z,990.79
2022-12-23T02:32:09.525Z,990.78
2022-12-23T02:33:12.157Z,990.72
2022-12-23T02:34:14.887Z,990.79
2022-12-23T02:35:17.607Z,990.8
2022-12-23T02:36:20.314Z,990.85
2022-12-23T02:37:23.538Z,990.75
2022-12-23T02:38:26.211Z,990.83
2022-12-23T02:39:28.931Z,990.85
2022-12-23T02:40:31.620Z,990.86
2022-12-23T02:41:34.326Z,990.93
2022-12-23T02:42:37.051Z,990.92
2022-12-23T02:43:40.358Z,990.98
2022-12-23T02:44:43.062Z,990.96
2022-12-23T02:45:46.004Z,990.96
2022-12-23T02:46:49.816Z,990.98
2022-12-23T02:47:52.739Z,990.97
2022-12-23T02:48:55.406Z,991.03
2022-12-23T02:49:58.116Z,991
2022-12-23T02:51:00.853Z,991.01
2022-12-23T02:52:03.574Z,991
2022-12-23T02:53:06.296Z,991.06
2022-12-23T02:54:09.842Z,991.08
2022-12-23T02:55:12.519Z,991.11
2022-12-23T02:56:16.768Z,991.14
2022-12-23T02:57:19.368Z,991.12
2022-12-23T02:58:22.188Z,991.14
2022-12-23T02:59:24.920Z,991.14
2022-12-23T03:00:27.617Z,991.22
2022-12-23T03:01:30.806Z,991.22
2022-12-23T03:02:34.887Z,991.22
2022-12-23T03:03:37.973Z,991.25
2022-12-23T03:04:40.807Z,991.18
2022-12-23T03:05:43.744Z,991.23
2022-12-23T03:06:46.911Z,991.23
2022-12-23T03:07:49.557Z,991.27
2022-12-23T03:08:52.512Z,991.35
2022-12-23T03:10:05.301Z,991.29
2022-12-23T03:11:07.612Z,991.38
2022-12-23T03:12:10.364Z,991.4
2022-12-23T03:13:13.052Z,991.41
2022-12-23T03:14:15.774Z,991.43
2022-12-23T03:15:18.994Z,991.41
2022-12-23T03:16:22.000Z,991.41
2022-12-23T03:17:24.715Z,991.41
2022-12-23T03:18:27.497Z,991.43
2022-12-23T03:19:30.247Z,991.41
2022-12-23T03:20:32.993Z,991.44
2022-12-23T03:21:35.753Z,991.41
2022-12-23T03:22:38.497Z,991.42
2022-12-23T03:23:41.246Z,991.36
2022-12-23T03:24:43.948Z,991.37
2022-12-23T03:25:46.673Z,991.41
2022-12-23T03:26:49.379Z,991.36
2022-12-23T03:27:52.105Z,991.32
2022-12-23T03:28:54.840Z,991.28
2022-12-23T03:29:57.571Z,991.29
2022-12-23T03:31:00.597Z,991.26
2022-12-23T03:32:03.549Z,991.33
2022-12-23T03:33:06.260Z,991.36
2022-12-23T03:34:09.002Z,991.34
2022-12-23T03:35:11.745Z,991.36
2022-12-23T03:36:14.711Z,991.27
2022-12-23T03:37:17.399Z,991.33
2022-12-23T03:38:20.219Z,991.29
2022-12-23T03:39:22.969Z,991.26
2022-12-23T03:40:25.706Z,991.25
2022-12-23T03:41:28.431Z,991.35
2022-12-23T03:42:31.096Z,991.31
2022-12-23T03:43:33.833Z,991.31
2022-12-23T03:44:36.500Z,991.33
2022-12-23T03:45:42.082Z,991.37
2022-12-23T03:46:44.870Z,991.37
2022-12-23T03:47:47.530Z,991.38
2022-12-23T03:48:50.269Z,991.42
2022-12-23T03:49:53.513Z,991.47
2022-12-23T03:50:56.197Z,991.47
2022-12-23T03:51:59.219Z,991.44
2022-12-23T03:53:02.389Z,991.56
2022-12-23T03:54:05.519Z,991.54
2022-12-23T03:55:18.196Z,991.61
2022-12-23T03:56:20.479Z,991.5
2022-12-23T03:57:23.179Z,991.55
2022-12-23T03:58:26.320Z,991.56
2022-12-23T03:59:28.937Z,991.56
2022-12-23T04:00:31.636Z,991.55
2022-12-23T04:01:34.918Z,991.56
2022-12-23T04:02:38.517Z,991.57
2022-12-23T04:03:41.441Z,991.58
2022-12-23T04:04:44.211Z,991.52
2022-12-23T04:05:47.873Z,991.47
2022-12-23T04:06:51.987Z,991.51
2022-12-23T04:07:54.575Z,991.54
2022-12-23T04:08:57.288Z,991.47
2022-12-23T04:10:00.041Z,991.56
2022-12-23T04:11:02.961Z,991.55
2022-12-23T04:12:05.659Z,991.59
2022-12-23T04:13:08.377Z,991.66
2022-12-23T04:14:11.319Z,991.62
2022-12-23T04:15:14.071Z,991.66
2022-12-23T04:16:17.712Z,991.67
2022-12-23T04:17:21.172Z,991.77
2022-12-23T04:18:23.895Z,991.76
2022-12-23T04:19:26.912Z,991.8
2022-12-23T04:20:31.117Z,991.84
2022-12-23T04:21:34.260Z,991.79
2022-12-23T04:22:38.202Z,991.78
2022-12-23T04:23:42.453Z,991.79
2022-12-23T04:24:45.097Z,991.79
2022-12-23T04:25:47.691Z,991.75
2022-12-23T04:26:50.400Z,991.74
2022-12-23T04:27:53.132Z,991.77
2022-12-23T04:28:55.813Z,991.75
2022-12-23T04:30:08.579Z,991.77
2022-12-23T04:31:11.400Z,991.79
2022-12-23T04:32:14.018Z,991.77
2022-12-23T04:33:16.738Z,991.77
2022-12-23T04:34:19.538Z,991.75
2022-12-23T04:35:22.465Z,991.68
2022-12-23T04:36:25.189Z,991.68
2022-12-23T04:37:28.183Z,991.73
2022-12-23T04:38:30.913Z,991.67
2022-12-23T04:39:35.230Z,991.72
2022-12-23T04:40:38.104Z,991.71
2022-12-23T04:41:41.295Z,991.72
2022-12-23T04:42:43.889Z,991.74
2022-12-23T04:43:53.802Z,991.82
2022-12-23T04:44:56.581Z,991.84
2022-12-23T04:45:59.261Z,991.8
2022-12-23T04:47:02.226Z,991.78
2022-12-23T04:48:04.964Z,991.76
2022-12-23T04:49:07.685Z,991.8
2022-12-23T04:50:10.464Z,991.82
2022-12-23T04:51:13.211Z,991.7
2022-12-23T04:52:16.057Z,991.73
2022-12-23T04:53:18.775Z,991.72
2022-12-23T04:54:21.583Z,991.82
2022-12-23T04:55:24.312Z,991.77
2022-12-23T04:56:27.047Z,991.79
2022-12-23T04:57:29.766Z,991.75
2022-12-23T04:58:32.478Z,991.74
2022-12-23T04:59:35.219Z,991.75
2022-12-23T05:00:40.677Z,991.71
2022-12-23T05:01:44.097Z,991.66
2022-12-23T05:02:47.976Z,991.64
2022-12-23T05:03:50.714Z,991.64
2022-12-23T05:04:53.397Z,991.69
2022-12-23T05:05:56.151Z,991.67
2022-12-23T05:06:59.075Z,991.67
2022-12-23T05:08:02.683Z,991.73
2022-12-23T05:09:05.418Z,991.76
2022-12-23T05:10:08.080Z,991.74
2022-12-23T05:11:10.855Z,991.77
2022-12-23T05:12:16.048Z,991.75
2022-12-23T05:13:18.590Z,991.76
2022-12-23T05:14:21.289Z,991.74
2022-12-23T05:15:24.019Z,991.76
2022-12-23T05:16:27.003Z,991.65
2022-12-23T05:17:29.754Z,991.69
2022-12-23T05:18:33.951Z,991.59
2022-12-23T05:19:36.663Z,991.61
2022-12-23T05:20:39.431Z,991.64
2022-12-23T05:21:42.189Z,991.69
2022-12-23T05:22:44.917Z,991.69
2022-12-23T05:23:47.685Z,991.75
2022-12-23T05:24:50.653Z,991.77
2022-12-23T05:25:53.624Z,991.74
2022-12-23T05:27:01.052Z,991.74
2022-12-23T05:28:04.507Z,991.78
2022-12-23T05:29:07.720Z,991.76
2022-12-23T05:30:10.921Z,991.79
2022-12-23T05:31:14.623Z,991.78
2022-12-23T05:32:17.297Z,991.78
2022-12-23T05:33:20.220Z,991.84
2022-12-23T05:34:23.225Z,991.9
2022-12-23T05:35:25.939Z,991.88
2022-12-23T05:36:28.883Z,991.89
2022-12-23T05:37:31.667Z,991.91
2022-12-23T05:38:34.380Z,991.86
2022-12-23T05:39:37.162Z,991.82
2022-12-23T05:40:40.333Z,991.83
2022-12-23T05:41:43.668Z,991.79
2022-12-23T05:42:46.397Z,991.86
2022-12-23T05:43:50.428Z,991.79
2022-12-23T05:44:53.048Z,991.88
2022-12-23T05:45:56.226Z,991.82
2022-12-23T05:46:58.946Z,991.9
2022-12-23T05:48:01.638Z,991.87
2022-12-23T05:49:04.321Z,991.88
2022-12-23T05:50:07.536Z,991.84
2022-12-23T05:51:10.265Z,991.83
2022-12-23T05:52:12.975Z,991.89
2022-12-23T05:53:15.784Z,991.88
2022-12-23T05:54:18.532Z,991.87
2022-12-23T05:55:21.271Z,991.9
2022-12-23T05:56:24.035Z,991.9
2022-12-23T05:57:26.821Z,991.9
2022-12-23T05:58:29.514Z,991.86
2022-12-23T05:59:32.324Z,991.82
2022-12-23T06:00:35.060Z,991.8
2022-12-23T06:01:38.300Z,991.86
2022-12-23T06:02:42.048Z,991.85
2022-12-23T06:03:48.230Z,991.86
2022-12-23T06:04:50.738Z,991.83
2022-12-23T06:05:53.378Z,991.83
2022-12-23T06:06:56.105Z,991.87
2022-12-23T06:07:58.808Z,991.92
2022-12-23T06:09:01.572Z,991.92
2022-12-23T06:10:04.262Z,991.86
2022-12-23T06:11:06.897Z,991.79
2022-12-23T06:12:09.653Z,991.84
2022-12-23T06:13:12.555Z,991.83
2022-12-23T06:14:15.263Z,991.86
2022-12-23T06:15:18.020Z,991.82
2022-12-23T06:16:21.024Z,991.78
2022-12-23T06:17:23.763Z,991.78
2022-12-23T06:18:28.120Z,991.72
2022-12-23T06:19:30.674Z,991.72
2022-12-23T06:20:33.340Z,991.72
2022-12-23T06:21:36.101Z,991.72
2022-12-23T06:22:38.723Z,991.72
2022-12-23T06:23:41.620Z,991.71
2022-12-23T06:24:44.339Z,991.8
2022-12-23T06:25:47.009Z,991.77
2022-12-23T06:26:57.895Z,991.75
2022-12-23T06:28:00.306Z,991.73
2022-12-23T06:29:03.150Z,991.8
2022-12-23T06:30:05.824Z,991.8
2022-12-23T06:31:09.001Z,991.8
2022-12-23T06:32:11.895Z,991.82
2022-12-23T06:33:14.600Z,991.72
2022-12-23T06:34:17.322Z,991.79
2022-12-23T06:35:20.542Z,991.79
2022-12-23T06:36:23.632Z,991.83
2022-12-23T06:37:26.323Z,991.82
2022-12-23T06:38:29.014Z,991.9
2022-12-23T06:39:31.743Z,991.88
2022-12-23T06:40:34.528Z,991.95
2022-12-23T06:41:37.283Z,991.95
2022-12-23T06:42:40.132Z,991.91
2022-12-23T06:43:43.086Z,991.96
2022-12-23T06:44:45.799Z,991.96
2022-12-23T06:45:48.807Z,992
2022-12-23T06:46:51.511Z,992
2022-12-23T06:47:54.219Z,992.03
2022-12-23T06:48:56.916Z,991.98
2022-12-23T06:49:59.601Z,991.93
2022-12-23T06:51:02.552Z,991.98
2022-12-23T06:52:05.242Z,991.98
2022-12-23T06:53:07.915Z,992.05
2022-12-23T06:54:11.131Z,992.05
2022-12-23T06:55:13.825Z,992.01
2022-12-23T06:56:16.610Z,992
2022-12-23T06:57:19.301Z,992.01
2022-12-23T06:58:22.275Z,992
2022-12-23T06:59:25.016Z,992.02
2022-12-23T07:00:27.690Z,991.96
2022-12-23T07:01:31.425Z,991.94
2022-12-23T07:02:34.686Z,992.03
2022-12-23T07:03:37.721Z,992
2022-12-23T07:04:40.452Z,992.07
2022-12-23T07:05:43.653Z,992
2022-12-23T07:06:46.899Z,992.02
2022-12-23T07:07:50.261Z,991.99
2022-12-23T07:08:57.579Z,991.95
2022-12-23T07:10:00.037Z,992.04
2022-12-23T07:11:02.787Z,992.01
2022-12-23T07:12:05.996Z,992.02
2022-12-23T07:13:09.696Z,992.04
2022-12-23T07:14:12.339Z,992.12
2022-12-23T07:15:15.131Z,992.14
2022-12-23T07:16:18.164Z,992.14
2022-12-23T07:17:21.069Z,992.17
2022-12-23T07:18:24.754Z,992.13
2022-12-23T07:19:27.641Z,992.13
2022-12-23T07:20:30.387Z,992.19
2022-12-23T07:21:33.050Z,992.2
2022-12-23T07:22:36.816Z,992.2
2022-12-23T07:23:39.458Z,992.22
2022-12-23T07:24:42.417Z,992.23
2022-12-23T07:25:45.109Z,992.24
2022-12-23T07:26:47.872Z,992.24
2022-12-23T07:27:50.652Z,992.19
2022-12-23T07:28:53.379Z,992.3
2022-12-23T07:29:56.066Z,992.37
2022-12-23T07:30:59.024Z,992.32
2022-12-23T07:32:02.003Z,992.27
2022-12-23T07:33:04.711Z,992.3
2022-12-23T07:34:07.406Z,992.3
2022-12-23T07:35:10.139Z,992.28
2022-12-23T07:36:13.367Z,992.24
2022-12-23T07:37:15.985Z,992.31
2022-12-23T07:38:18.678Z,992.28
2022-12-23T07:39:21.451Z,992.28
2022-12-23T07:40:24.195Z,992.35
2022-12-23T07:41:26.852Z,992.31
2022-12-23T07:42:46.403Z,992.36
2022-12-23T07:43:49.168Z,992.31
2022-12-23T07:44:51.843Z,992.3
2022-12-23T07:46:01.511Z,992.3
2022-12-23T07:47:03.872Z,992.35
2022-12-23T07:48:06.507Z,992.39
2022-12-23T07:49:09.169Z,992.3
2022-12-23T07:50:12.092Z,992.35
2022-12-23T07:51:14.855Z,992.23
2022-12-23T07:52:18.165Z,992.24
2022-12-23T07:53:20.879Z,992.23
2022-12-23T07:54:23.583Z,992.23
2022-12-23T07:55:26.310Z,992.32
2022-12-23T07:56:29.095Z,992.3
2022-12-23T07:57:31.801Z,992.23
2022-12-23T07:58:34.562Z,992.23
2022-12-23T07:59:37.347Z,992.25
2022-12-23T08:00:40.047Z,992.31
2022-12-23T08:01:43.298Z,992.26
2022-12-23T08:02:46.795Z,992.25
2022-12-23T08:03:49.985Z,992.23
2022-12-23T08:04:52.931Z,992.23
2022-12-23T08:05:55.630Z,992.2
2022-12-23T08:06:58.323Z,992.18
2022-12-23T08:08:01.029Z,992.16
2022-12-23T08:09:03.736Z,992.22
2022-12-23T08:10:06.439Z,992.2
2022-12-23T08:11:09.208Z,992.26
2022-12-23T08:12:11.913Z,992.3
2022-12-23T08:13:14.672Z,992.24
2022-12-23T08:14:17.384Z,992.14
2022-12-23T08:15:20.149Z,992.08
2022-12-23T08:16:44.612Z,992.07
2022-12-23T08:17:46.734Z,992.12
2022-12-23T08:18:49.532Z,992.09
2022-12-23T08:19:52.181Z,992.06
2022-12-23T08:20:54.860Z,992.04
2022-12-23T08:21:57.649Z,991.96
2022-12-23T08:23:00.364Z,991.95
2022-12-23T08:24:03.105Z,991.89
2022-12-23T08:25:08.329Z,991.91
2022-12-23T08:26:10.718Z,991.94
2022-12-23T08:27:13.642Z,991.92
2022-12-23T08:28:16.379Z,991.92
2022-12-23T08:29:22.469Z,991.95
2022-12-23T08:30:28.803Z,991.98
2022-12-23T08:31:31.535Z,991.93
2022-12-23T08:32:44.323Z,991.91
2022-12-23T08:33:46.573Z,991.93
2022-12-23T08:34:49.508Z,991.98
2022-12-23T08:35:52.206Z,991.99
2022-12-23T08:36:54.895Z,991.99
2022-12-23T08:37:57.545Z,992.04
2022-12-23T08:39:41.811Z,992.08
2022-12-23T08:40:48.247Z,992.08
2022-12-23T08:41:50.523Z,992.03
2022-12-23T08:42:53.445Z,992.07
2022-12-23T08:43:56.060Z,992.09
2022-12-23T08:44:58.955Z,992.11
2022-12-23T08:46:02.028Z,992.19
2022-12-23T08:47:04.775Z,992.17
2022-12-23T08:48:07.379Z,992.16
2022-12-23T08:49:10.188Z,992.15
2022-12-23T08:50:23.351Z,992.18
2022-12-23T08:51:25.541Z,992.24
2022-12-23T08:52:28.176Z,992.28
2022-12-23T08:53:31.377Z,992.3
2022-12-23T08:54:34.528Z,992.34
2022-12-23T08:55:37.253Z,992.3
2022-12-23T08:56:39.991Z,992.38
2022-12-23T08:57:54.807Z,992.38
2022-12-23T08:58:57.112Z,992.38
2022-12-23T08:59:59.779Z,992.42
2022-12-23T09:01:02.658Z,992.39
2022-12-23T09:02:06.987Z,992.4
2022-12-23T09:03:10.462Z,992.36
2022-12-23T09:04:13.214Z,992.27
2022-12-23T09:05:15.918Z,992.25
2022-12-23T09:06:30.495Z,992.15
2022-12-23T09:07:32.893Z,992.15
2022-12-23T09:08:35.632Z,992.13
2022-12-23T09:09:39.528Z,992.14
2022-12-23T09:10:42.112Z,992.15
2022-12-23T09:11:44.770Z,992.21
2022-12-23T09:12:47.485Z,992.1
2022-12-23T09:13:50.687Z,992.06
2022-12-23T09:14:53.398Z,992.07
2022-12-23T09:15:56.486Z,992.09
2022-12-23T09:16:59.165Z,992.08
2022-12-23T09:18:01.945Z,992.01
2022-12-23T09:19:04.588Z,992.02
2022-12-23T09:20:07.343Z,991.97
2022-12-23T09:21:20.139Z,991.99
2022-12-23T09:22:22.537Z,992.02
2022-12-23T09:23:25.199Z,992.03
2022-12-23T09:24:27.968Z,992.03
2022-12-23T09:25:30.716Z,992.09
2022-12-23T09:26:33.435Z,992.09
2022-12-23T09:27:36.296Z,992.08
2022-12-23T09:28:39.044Z,992.1
2022-12-23T09:29:41.735Z,992.15
2022-12-23T09:30:44.568Z,992.15
2022-12-23T09:31:57.802Z,992.15
2022-12-23T09:33:00.395Z,992.22
2022-12-23T09:34:03.084Z,992.25
2022-12-23T09:35:05.745Z,992.3
2022-12-23T09:36:08.602Z,992.29
2022-12-23T09:37:11.859Z,992.27
2022-12-23T09:38:14.673Z,992.25
2022-12-23T09:39:17.462Z,992.29
2022-12-23T09:40:20.092Z,992.33
2022-12-23T09:41:23.357Z,992.34
2022-12-23T09:42:26.063Z,992.34
2022-12-23T09:43:28.758Z,992.31
2022-12-23T09:44:31.458Z,992.28
2022-12-23T09:45:41.166Z,992.25
2022-12-23T09:46:43.740Z,992.22
2022-12-23T09:47:47.020Z,992.19
2022-12-23T09:48:49.717Z,992.2
2022-12-23T09:49:52.511Z,992.15
2022-12-23T09:51:05.228Z,992.12
2022-12-23T09:52:07.532Z,992.06
2022-12-23T09:53:10.208Z,992.08
2022-12-23T09:54:17.963Z,992.06
2022-12-23T09:55:20.324Z,992.05
2022-12-23T09:56:23.094Z,991.99
2022-12-23T09:57:46.833Z,991.95
2022-12-23T09:58:48.942Z,992
2022-12-23T09:59:51.622Z,991.99
2022-12-23T10:00:54.332Z,991.97
2022-12-23T10:01:57.692Z,992
2022-12-23T10:03:01.485Z,992.05
2022-12-23T10:04:04.641Z,992
2022-12-23T10:05:07.362Z,991.97
2022-12-23T10:06:10.030Z,991.95
2022-12-23T10:07:12.804Z,991.89
2022-12-23T10:08:15.484Z,991.85
2022-12-23T10:09:18.148Z,991.85
2022-12-23T10:10:20.918Z,991.88
2022-12-23T10:11:26.200Z,991.84
2022-12-23T10:12:40.750Z,991.88
2022-12-23T10:13:42.991Z,991.88
2022-12-23T10:14:45.629Z,991.8
2022-12-23T10:15:49.134Z,991.78
2022-12-23T10:16:51.837Z,991.83
2022-12-23T10:17:54.551Z,991.85
2022-12-23T10:18:57.257Z,991.8
2022-12-23T10:20:00.475Z,991.84
2022-12-23T10:21:13.141Z,991.79
2022-12-23T10:22:15.390Z,991.78
2022-12-23T10:23:18.078Z,991.69
2022-12-23T10:24:20.794Z,991.68
2022-12-23T10:25:23.444Z,991.54
2022-12-23T10:26:26.293Z,991.54
2022-12-23T10:27:29.006Z,991.51
2022-12-23T10:28:31.730Z,991.39
2022-12-23T10:29:34.475Z,991.49
2022-12-23T10:31:10.818Z,991.43
2022-12-23T10:31:59.327Z,991.36
2022-12-23T10:33:01.956Z,991.4
2022-12-23T10:34:04.650Z,991.41
2022-12-23T10:35:07.395Z,991.3
2022-12-23T10:36:10.270Z,991.31
2022-12-23T10:37:13.484Z,991.33
2022-12-23T10:38:16.169Z,991.29
2022-12-23T10:39:18.869Z,991.33
2022-12-23T10:40:22.783Z,991.33
2022-12-23T10:41:25.461Z,991.26
2022-12-23T10:42:28.190Z,991.2
2022-12-23T10:43:31.030Z,991.23
2022-12-23T10:44:33.838Z,991.22
2022-12-23T10:45:37.727Z,991.2
2022-12-23T10:46:40.490Z,991.19
2022-12-23T10:47:46.692Z,991.17
2022-12-23T10:48:49.177Z,991.15
2022-12-23T10:49:52.674Z,991.06
2022-12-23T10:50:55.285Z,991.11
2022-12-23T10:51:58.013Z,991.12
2022-12-23T10:53:01.305Z,991.1
2022-12-23T10:54:04.068Z,991.05
2022-12-23T10:55:06.837Z,991.04
2022-12-23T10:56:09.535Z,991.05
2022-12-23T10:57:12.226Z,991.02
2022-12-23T10:58:15.155Z,991
2022-12-23T10:59:17.880Z,990.95
2022-12-23T11:00:20.574Z,990.98
2022-12-23T11:01:28.145Z,990.93
2022-12-23T11:02:31.261Z,990.87
2022-12-23T11:03:34.841Z,990.85
2022-12-23T11:04:47.583Z,990.78
2022-12-23T11:05:49.888Z,990.81
2022-12-23T11:07:41.864Z,990.8
2022-12-23T11:08:14.971Z,990.79
2022-12-23T11:09:17.556Z,990.79
2022-12-23T11:10:28.173Z,990.79
2022-12-23T11:11:32.036Z,990.78
2022-12-23T11:12:43.065Z,990.77
2022-12-23T11:13:46.031Z,990.76
2022-12-23T11:14:49.248Z,990.79
2022-12-23T11:15:52.862Z,990.78
2022-12-23T11:16:56.272Z,990.84
2022-12-23T11:21:37.401Z,990.62
2022-12-23T11:23:17.330Z,990.6
2022-12-23T11:24:19.317Z,990.61
2022-12-23T11:25:21.934Z,990.61
2022-12-23T11:26:24.548Z,990.61
2022-12-23T11:27:30.656Z,990.58
2022-12-23T11:28:33.200Z,990.62
2022-12-23T11:29:35.887Z,990.64
2022-12-23T11:30:41.334Z,990.7
2022-12-23T11:31:44.420Z,990.71
2022-12-23T11:32:47.022Z,990.74
2022-12-23T11:33:51.663Z,990.62
2022-12-23T11:34:54.893Z,990.58
2022-12-23T11:35:57.671Z,990.64
2022-12-23T11:37:08.107Z,990.66
2022-12-23T11:38:10.439Z,990.66
2022-12-23T11:39:13.208Z,990.57
2022-12-23T11:40:15.993Z,990.62
2022-12-23T11:41:18.699Z,990.61
2022-12-23T11:42:21.425Z,990.6
2022-12-23T11:43:24.159Z,990.54
2022-12-23T11:44:27.142Z,990.55
2022-12-23T11:45:30.622Z,990.53
2022-12-23T11:46:33.375Z,990.45
2022-12-23T11:47:37.121Z,990.49
2022-12-23T11:48:39.768Z,990.41
2022-12-23T11:49:42.524Z,990.34
2022-12-23T11:50:45.237Z,990.42
2022-12-23T11:51:48.371Z,990.34
2022-12-23T11:52:51.050Z,990.33
2022-12-23T11:53:53.780Z,990.37
2022-12-23T11:55:06.613Z,990.33
2022-12-23T11:56:08.947Z,990.31
2022-12-23T11:57:11.973Z,990.4
2022-12-23T11:58:14.642Z,990.34
2022-12-23T11:59:17.536Z,990.33
2022-12-23T12:00:31.124Z,990.39
2022-12-23T12:01:33.480Z,990.33
2022-12-23T12:02:37.217Z,990.41
2022-12-23T12:03:40.263Z,990.38
2022-12-23T12:04:43.105Z,990.39
2022-12-23T12:05:45.838Z,990.33
2022-12-23T12:06:57.115Z,990.28
2022-12-23T12:07:59.402Z,990.25
2022-12-23T12:09:02.111Z,990.26
2022-12-23T12:10:04.835Z,990.21
2022-12-23T12:11:07.634Z,990.16
2022-12-23T12:12:10.382Z,990.08
2022-12-23T12:13:13.118Z,990.05
2022-12-23T12:14:15.839Z,989.91
2022-12-23T12:15:18.803Z,989.94
2022-12-23T12:16:22.047Z,990.08
2022-12-23T12:17:24.761Z,990.09
2022-12-23T12:18:27.511Z,990.08
2022-12-23T12:19:30.235Z,990.11
2022-12-23T12:20:32.988Z,990.09
2022-12-23T12:21:35.966Z,990.05
2022-12-23T12:22:39.476Z,989.95
2022-12-23T12:23:42.229Z,990.01
2022-12-23T12:24:44.968Z,989.89
2022-12-23T12:25:48.403Z,989.88
2022-12-23T12:26:51.597Z,989.8
2022-12-23T12:27:55.162Z,989.8
2022-12-23T12:28:57.894Z,989.76
2022-12-23T12:30:09.259Z,989.79
2022-12-23T12:31:12.094Z,989.75
2022-12-23T12:32:14.728Z,989.79
2022-12-23T12:33:17.475Z,989.72
2022-12-23T12:34:20.206Z,989.8
2022-12-23T12:35:22.942Z,989.74
2022-12-23T12:36:26.204Z,989.76
2022-12-23T12:37:28.895Z,989.78
2022-12-23T12:38:31.572Z,989.73
2022-12-23T12:39:34.275Z,989.63
2022-12-23T12:40:37.061Z,989.52
2022-12-23T12:41:39.817Z,989.54
2022-12-23T12:42:42.549Z,989.54
2022-12-23T12:43:45.343Z,989.57
2022-12-23T12:44:48.272Z,989.54
2022-12-23T12:45:51.281Z,989.52
2022-12-23T12:46:54.048Z,989.47
2022-12-23T12:48:18.035Z,989.4
2022-12-23T12:49:18.668Z,989.37
2022-12-23T12:50:21.671Z,989.46
2022-12-23T12:51:24.433Z,989.45
2022-12-23T12:52:27.159Z,989.45
2022-12-23T12:53:29.891Z,989.43
2022-12-23T12:54:32.644Z,989.45
2022-12-23T12:55:35.361Z,989.44
2022-12-23T12:56:38.118Z,989.46
2022-12-23T12:57:41.953Z,989.36
2022-12-23T12:58:44.712Z,989.32
2022-12-23T12:59:47.459Z,989.34
2022-12-23T13:00:50.232Z,989.33
2022-12-23T13:01:53.631Z,989.33
2022-12-23T13:02:56.721Z,989.26
2022-12-23T13:03:59.458Z,989.31
2022-12-23T13:05:02.235Z,989.29
2022-12-23T13:06:05.002Z,989.33
2022-12-23T13:07:07.803Z,989.33
2022-12-23T13:08:10.566Z,989.31
2022-12-23T13:09:13.317Z,989.35
2022-12-23T13:10:16.046Z,989.38
2022-12-23T13:11:29.114Z,989.39
2022-12-23T13:12:31.390Z,989.33
2022-12-23T13:13:34.117Z,989.32
2022-12-23T13:14:36.867Z,989.35
2022-12-23T13:15:39.659Z,989.28
2022-12-23T13:16:42.593Z,989.28
2022-12-23T13:17:45.310Z,989.34
2022-12-23T13:18:48.397Z,989.28
2022-12-23T13:19:51.074Z,989.27